sensor_id;sensor_type;location;lat;lon;timestamp;P1;durP1;ratioP1;P2;durP2;ratioP2
19971;SDS011;10147;16.402;102.848;2022-11-15T00:01:17;24.58;;;21.38;;
19971;SDS011;10147;16.402;102.848;2022-11-15T00:04:08;22.63;;;19.13;;
19971;SDS011;10147;16.402;102.848;2022-11-15T00:07:00;21.65;;;18.05;;
19971;SDS011;10147;16.402;102.848;2022-11-15T00:09:50;62.08;;;57.08;;
19971;SDS011;10147;16.402;102.848;2022-11-15T00:12:40;22.00;;;17.77;;
19971;SDS011;10147;16.402;102.848;2022-11-15T00:15:30;18.15;;;16.20;;
19971;SDS011;10147;16.402;102.848;2022-11-15T00:18:20;17.08;;;14.73;;
19971;SDS011;10147;16.402;102.848;2022-11-15T00:21:10;19.35;;;14.73;;
19971;SDS011;10147;16.402;102.848;2022-11-15T00:24:01;16.23;;;14.38;;
19971;SDS011;10147;16.402;102.848;2022-11-15T00:26:51;14.57;;;12.30;;
19971;SDS011;10147;16.402;102.848;2022-11-15T00:29:41;16.95;;;12.52;;
19971;SDS011;10147;16.402;102.848;2022-11-15T00:32:31;14.40;;;11.43;;
19971;SDS011;10147;16.402;102.848;2022-11-15T00:35:21;14.45;;;10.60;;
19971;SDS011;10147;16.402;102.848;2022-11-15T00:38:11;13.65;;;11.10;;
19971;SDS011;10147;16.402;102.848;2022-11-15T00:41:01;16.35;;;13.38;;
19971;SDS011;10147;16.402;102.848;2022-11-15T00:43:55;13.68;;;10.70;;
19971;SDS011;10147;16.402;102.848;2022-11-15T00:46:45;13.20;;;11.57;;
19971;SDS011;10147;16.402;102.848;2022-11-15T00:49:36;17.55;;;15.68;;
19971;SDS011;10147;16.402;102.848;2022-11-15T00:52:25;21.45;;;17.77;;
19971;SDS011;10147;16.402;102.848;2022-11-15T00:55:16;12.63;;;10.15;;
19971;SDS011;10147;16.402;102.848;2022-11-15T00:58:06;11.07;;;9.80;;
19971;SDS011;10147;16.402;102.848;2022-11-15T01:00:56;12.40;;;9.65;;
19971;SDS011;10147;16.402;102.848;2022-11-15T01:03:53;12.20;;;10.60;;
19971;SDS011;10147;16.402;102.848;2022-11-15T01:06:47;14.25;;;9.60;;
19971;SDS011;10147;16.402;102.848;2022-11-15T01:09:38;17.98;;;14.00;;
19971;SDS011;10147;16.402;102.848;2022-11-15T01:12:28;12.57;;;9.05;;
19971;SDS011;10147;16.402;102.848;2022-11-15T01:15:17;15.68;;;9.77;;
19971;SDS011;10147;16.402;102.848;2022-11-15T01:18:08;9.57;;;7.63;;
19971;SDS011;10147;16.402;102.848;2022-11-15T01:20:58;10.75;;;7.22;;
19971;SDS011;10147;16.402;102.848;2022-11-15T01:23:52;8.13;;;7.32;;
19971;SDS011;10147;16.402;102.848;2022-11-15T01:26:43;14.35;;;8.05;;
19971;SDS011;10147;16.402;102.848;2022-11-15T01:29:34;10.00;;;7.55;;
19971;SDS011;10147;16.402;102.848;2022-11-15T01:32:24;9.80;;;7.38;;
19971;SDS011;10147;16.402;102.848;2022-11-15T01:35:14;9.85;;;6.32;;
19971;SDS011;10147;16.402;102.848;2022-11-15T01:38:04;17.77;;;8.70;;
19971;SDS011;10147;16.402;102.848;2022-11-15T01:40:55;12.60;;;8.02;;
19971;SDS011;10147;16.402;102.848;2022-11-15T01:43:46;8.10;;;6.18;;
19971;SDS011;10147;16.402;102.848;2022-11-15T01:46:39;10.93;;;6.68;;
19971;SDS011;10147;16.402;102.848;2022-11-15T01:49:32;9.05;;;6.45;;
19971;SDS011;10147;16.402;102.848;2022-11-15T01:52:25;9.10;;;5.80;;
19971;SDS011;10147;16.402;102.848;2022-11-15T01:55:21;7.18;;;5.45;;
19971;SDS011;10147;16.402;102.848;2022-11-15T01:58:14;7.85;;;4.90;;
19971;SDS011;10147;16.402;102.848;2022-11-15T02:01:04;8.80;;;5.65;;
19971;SDS011;10147;16.402;102.848;2022-11-15T02:03:57;11.70;;;5.85;;
19971;SDS011;10147;16.402;102.848;2022-11-15T02:06:55;17.15;;;14.82;;
19971;SDS011;10147;16.402;102.848;2022-11-15T02:09:46;8.63;;;5.35;;
19971;SDS011;10147;16.402;102.848;2022-11-15T02:12:36;7.20;;;4.97;;
19971;SDS011;10147;16.402;102.848;2022-11-15T02:15:27;10.30;;;5.38;;
19971;SDS011;10147;16.402;102.848;2022-11-15T02:18:52;9.32;;;6.07;;
19971;SDS011;10147;16.402;102.848;2022-11-15T02:28:33;6.95;;;4.30;;
19971;SDS011;10147;16.402;102.848;2022-11-15T02:38:56;9.07;;;5.30;;
19971;SDS011;10147;16.402;102.848;2022-11-15T02:42:13;9.02;;;5.57;;
19971;SDS011;10147;16.402;102.848;2022-11-15T02:45:28;7.65;;;4.80;;
19971;SDS011;10147;16.402;102.848;2022-11-15T02:48:22;11.25;;;5.35;;
19971;SDS011;10147;16.402;102.848;2022-11-15T02:51:14;10.55;;;5.70;;
19971;SDS011;10147;16.402;102.848;2022-11-15T02:54:06;7.95;;;5.32;;
19971;SDS011;10147;16.402;102.848;2022-11-15T02:57:02;9.57;;;4.80;;
19971;SDS011;10147;16.402;102.848;2022-11-15T03:03:14;10.15;;;5.43;;
19971;SDS011;10147;16.402;102.848;2022-11-15T03:09:55;10.55;;;5.43;;
19971;SDS011;10147;16.402;102.848;2022-11-15T03:13:19;7.13;;;4.88;;
19971;SDS011;10147;16.402;102.848;2022-11-15T03:19:47;8.80;;;5.80;;
19971;SDS011;10147;16.402;102.848;2022-11-15T03:22:40;8.93;;;5.70;;
19971;SDS011;10147;16.402;102.848;2022-11-15T03:25:33;6.85;;;5.13;;
19971;SDS011;10147;16.402;102.848;2022-11-15T03:28:31;8.98;;;5.47;;
19971;SDS011;10147;16.402;102.848;2022-11-15T03:31:26;7.82;;;4.60;;
19971;SDS011;10147;16.402;102.848;2022-11-15T03:34:44;7.90;;;4.95;;
19971;SDS011;10147;16.402;102.848;2022-11-15T03:41:12;8.88;;;5.40;;
19971;SDS011;10147;16.402;102.848;2022-11-15T03:44:13;6.82;;;5.70;;
19971;SDS011;10147;16.402;102.848;2022-11-15T03:50:37;9.70;;;7.63;;
19971;SDS011;10147;16.402;102.848;2022-11-15T03:53:28;10.32;;;7.47;;
19971;SDS011;10147;16.402;102.848;2022-11-15T03:56:19;8.70;;;5.32;;
19971;SDS011;10147;16.402;102.848;2022-11-15T03:59:09;10.07;;;5.50;;
19971;SDS011;10147;16.402;102.848;2022-11-15T04:01:59;7.13;;;5.30;;
19971;SDS011;10147;16.402;102.848;2022-11-15T04:04:49;7.00;;;5.60;;
19971;SDS011;10147;16.402;102.848;2022-11-15T04:07:38;5.68;;;5.18;;
19971;SDS011;10147;16.402;102.848;2022-11-15T04:10:29;9.45;;;5.90;;
19971;SDS011;10147;16.402;102.848;2022-11-15T04:13:19;9.02;;;7.50;;
19971;SDS011;10147;16.402;102.848;2022-11-15T04:16:09;10.75;;;5.90;;
19971;SDS011;10147;16.402;102.848;2022-11-15T04:18:59;7.40;;;6.07;;
19971;SDS011;10147;16.402;102.848;2022-11-15T04:22:09;7.50;;;6.22;;
19971;SDS011;10147;16.402;102.848;2022-11-15T04:25:18;8.80;;;6.47;;
19971;SDS011;10147;16.402;102.848;2022-11-15T04:28:13;9.38;;;7.65;;
19971;SDS011;10147;16.402;102.848;2022-11-15T04:31:02;8.02;;;6.78;;
19971;SDS011;10147;16.402;102.848;2022-11-15T04:33:52;8.57;;;6.53;;
19971;SDS011;10147;16.402;102.848;2022-11-15T04:36:42;8.65;;;7.07;;
19971;SDS011;10147;16.402;102.848;2022-11-15T04:39:52;8.20;;;6.55;;
19971;SDS011;10147;16.402;102.848;2022-11-15T04:42:42;38.88;;;36.13;;
19971;SDS011;10147;16.402;102.848;2022-11-15T04:45:33;17.55;;;16.10;;
19971;SDS011;10147;16.402;102.848;2022-11-15T04:48:22;6.75;;;5.90;;
19971;SDS011;10147;16.402;102.848;2022-11-15T04:51:13;9.73;;;7.10;;
19971;SDS011;10147;16.402;102.848;2022-11-15T04:54:04;12.20;;;7.65;;
19971;SDS011;10147;16.402;102.848;2022-11-15T04:56:54;7.07;;;6.47;;
19971;SDS011;10147;16.402;102.848;2022-11-15T04:59:44;10.85;;;7.50;;
19971;SDS011;10147;16.402;102.848;2022-11-15T05:02:35;10.30;;;9.27;;
19971;SDS011;10147;16.402;102.848;2022-11-15T05:05:44;9.35;;;7.50;;
19971;SDS011;10147;16.402;102.848;2022-11-15T05:08:35;8.25;;;7.18;;
19971;SDS011;10147;16.402;102.848;2022-11-15T05:11:24;8.45;;;7.68;;
19971;SDS011;10147;16.402;102.848;2022-11-15T05:14:15;8.80;;;7.78;;
19971;SDS011;10147;16.402;102.848;2022-11-15T05:17:05;8.20;;;7.10;;
19971;SDS011;10147;16.402;102.848;2022-11-15T05:19:56;8.00;;;7.20;;
19971;SDS011;10147;16.402;102.848;2022-11-15T05:22:46;11.40;;;7.63;;
19971;SDS011;10147;16.402;102.848;2022-11-15T05:25:36;14.07;;;7.97;;
19971;SDS011;10147;16.402;102.848;2022-11-15T05:28:26;9.68;;;8.10;;
19971;SDS011;10147;16.402;102.848;2022-11-15T05:31:16;9.85;;;8.60;;
19971;SDS011;10147;16.402;102.848;2022-11-15T05:34:06;11.55;;;10.70;;
19971;SDS011;10147;16.402;102.848;2022-11-15T05:36:57;10.48;;;8.48;;
19971;SDS011;10147;16.402;102.848;2022-11-15T05:39:48;9.00;;;8.20;;
19971;SDS011;10147;16.402;102.848;2022-11-15T05:42:38;9.38;;;8.52;;
19971;SDS011;10147;16.402;102.848;2022-11-15T05:45:27;9.43;;;8.10;;
19971;SDS011;10147;16.402;102.848;2022-11-15T05:48:18;10.13;;;8.20;;
19971;SDS011;10147;16.402;102.848;2022-11-15T05:51:08;8.57;;;7.88;;
19971;SDS011;10147;16.402;102.848;2022-11-15T05:53:58;8.77;;;7.97;;
19971;SDS011;10147;16.402;102.848;2022-11-15T05:56:50;10.00;;;7.95;;
19971;SDS011;10147;16.402;102.848;2022-11-15T05:59:42;10.23;;;8.23;;
19971;SDS011;10147;16.402;102.848;2022-11-15T06:02:32;8.68;;;7.82;;
19971;SDS011;10147;16.402;102.848;2022-11-15T06:05:23;9.23;;;8.43;;
19971;SDS011;10147;16.402;102.848;2022-11-15T06:08:13;10.88;;;8.52;;
19971;SDS011;10147;16.402;102.848;2022-11-15T06:11:03;8.20;;;7.40;;
19971;SDS011;10147;16.402;102.848;2022-11-15T06:13:54;9.18;;;7.72;;
19971;SDS011;10147;16.402;102.848;2022-11-15T06:16:45;8.85;;;7.45;;
19971;SDS011;10147;16.402;102.848;2022-11-15T06:19:35;9.02;;;7.40;;
19971;SDS011;10147;16.402;102.848;2022-11-15T06:22:25;9.13;;;8.23;;
19971;SDS011;10147;16.402;102.848;2022-11-15T06:25:15;9.05;;;8.10;;
19971;SDS011;10147;16.402;102.848;2022-11-15T06:28:05;9.15;;;8.20;;
19971;SDS011;10147;16.402;102.848;2022-11-15T06:30:56;11.35;;;8.30;;
19971;SDS011;10147;16.402;102.848;2022-11-15T06:33:53;11.60;;;8.10;;
19971;SDS011;10147;16.402;102.848;2022-11-15T06:36:44;8.63;;;7.72;;
19971;SDS011;10147;16.402;102.848;2022-11-15T06:39:34;8.55;;;7.63;;
19971;SDS011;10147;16.402;102.848;2022-11-15T06:42:24;10.98;;;7.50;;
19971;SDS011;10147;16.402;102.848;2022-11-15T06:45:14;8.57;;;7.60;;
19971;SDS011;10147;16.402;102.848;2022-11-15T06:48:05;10.52;;;7.43;;
19971;SDS011;10147;16.402;102.848;2022-11-15T06:50:56;10.60;;;7.53;;
19971;SDS011;10147;16.402;102.848;2022-11-15T06:53:47;12.18;;;9.68;;
19971;SDS011;10147;16.402;102.848;2022-11-15T06:56:37;10.40;;;8.90;;
19971;SDS011;10147;16.402;102.848;2022-11-15T06:59:27;13.10;;;7.43;;
19971;SDS011;10147;16.402;102.848;2022-11-15T07:02:23;11.05;;;7.53;;
19971;SDS011;10147;16.402;102.848;2022-11-15T07:05:15;8.43;;;7.22;;
19971;SDS011;10147;16.402;102.848;2022-11-15T07:08:05;8.02;;;6.90;;
19971;SDS011;10147;16.402;102.848;2022-11-15T07:10:59;8.18;;;7.25;;
19971;SDS011;10147;16.402;102.848;2022-11-15T07:13:50;10.02;;;7.60;;
19971;SDS011;10147;16.402;102.848;2022-11-15T07:16:41;10.80;;;7.35;;
19971;SDS011;10147;16.402;102.848;2022-11-15T07:19:31;7.97;;;6.82;;
19971;SDS011;10147;16.402;102.848;2022-11-15T07:22:22;8.25;;;7.55;;
19971;SDS011;10147;16.402;102.848;2022-11-15T07:25:11;7.80;;;6.97;;
19971;SDS011;10147;16.402;102.848;2022-11-15T07:28:02;8.13;;;6.97;;
19971;SDS011;10147;16.402;102.848;2022-11-15T07:30:52;7.30;;;6.65;;
19971;SDS011;10147;16.402;102.848;2022-11-15T07:33:43;10.00;;;7.00;;
19971;SDS011;10147;16.402;102.848;2022-11-15T07:36:32;11.20;;;7.00;;
19971;SDS011;10147;16.402;102.848;2022-11-15T07:39:23;8.90;;;6.80;;
19971;SDS011;10147;16.402;102.848;2022-11-15T07:42:13;7.60;;;6.90;;
19971;SDS011;10147;16.402;102.848;2022-11-15T07:45:23;10.68;;;8.00;;
19971;SDS011;10147;16.402;102.848;2022-11-15T07:48:17;11.98;;;7.55;;
19971;SDS011;10147;16.402;102.848;2022-11-15T07:51:09;10.05;;;7.30;;
19971;SDS011;10147;16.402;102.848;2022-11-15T07:54:03;8.68;;;7.78;;
19971;SDS011;10147;16.402;102.848;2022-11-15T07:56:53;7.72;;;6.90;;
19971;SDS011;10147;16.402;102.848;2022-11-15T07:59:47;8.85;;;7.38;;
19971;SDS011;10147;16.402;102.848;2022-11-15T08:02:38;11.50;;;7.18;;
19971;SDS011;10147;16.402;102.848;2022-11-15T08:05:28;7.72;;;6.90;;
19971;SDS011;10147;16.402;102.848;2022-11-15T08:08:19;8.35;;;7.47;;
19971;SDS011;10147;16.402;102.848;2022-11-15T08:11:09;16.70;;;11.05;;
19971;SDS011;10147;16.402;102.848;2022-11-15T08:14:15;9.70;;;8.68;;
19971;SDS011;10147;16.402;102.848;2022-11-15T08:17:05;8.65;;;7.50;;
19971;SDS011;10147;16.402;102.848;2022-11-15T08:19:55;8.50;;;7.35;;
19971;SDS011;10147;16.402;102.848;2022-11-15T08:22:46;8.50;;;6.90;;
19971;SDS011;10147;16.402;102.848;2022-11-15T08:25:39;9.20;;;7.00;;
19971;SDS011;10147;16.402;102.848;2022-11-15T08:28:30;7.13;;;6.45;;
19971;SDS011;10147;16.402;102.848;2022-11-15T08:31:20;8.77;;;7.20;;
19971;SDS011;10147;16.402;102.848;2022-11-15T08:34:10;6.93;;;6.13;;
19971;SDS011;10147;16.402;102.848;2022-11-15T08:36:59;9.15;;;7.35;;
19971;SDS011;10147;16.402;102.848;2022-11-15T08:39:49;8.38;;;6.68;;
19971;SDS011;10147;16.402;102.848;2022-11-15T08:42:39;8.00;;;7.10;;
19971;SDS011;10147;16.402;102.848;2022-11-15T08:45:31;7.28;;;6.35;;
19971;SDS011;10147;16.402;102.848;2022-11-15T08:48:22;8.20;;;7.38;;
19971;SDS011;10147;16.402;102.848;2022-11-15T08:51:12;10.02;;;6.70;;
19971;SDS011;10147;16.402;102.848;2022-11-15T08:54:02;7.18;;;6.43;;
19971;SDS011;10147;16.402;102.848;2022-11-15T08:56:52;9.27;;;6.40;;
19971;SDS011;10147;16.402;102.848;2022-11-15T08:59:42;9.00;;;6.88;;
19971;SDS011;10147;16.402;102.848;2022-11-15T09:02:33;13.27;;;12.15;;
19971;SDS011;10147;16.402;102.848;2022-11-15T09:05:23;14.95;;;13.65;;
19971;SDS011;10147;16.402;102.848;2022-11-15T09:08:13;19.38;;;17.77;;
19971;SDS011;10147;16.402;102.848;2022-11-15T09:11:23;14.65;;;9.93;;
19971;SDS011;10147;16.402;102.848;2022-11-15T09:14:14;11.95;;;9.00;;
19971;SDS011;10147;16.402;102.848;2022-11-15T09:17:08;13.57;;;9.23;;
19971;SDS011;10147;16.402;102.848;2022-11-15T09:19:58;12.43;;;8.70;;
19971;SDS011;10147;16.402;102.848;2022-11-15T09:22:49;11.18;;;7.72;;
19971;SDS011;10147;16.402;102.848;2022-11-15T09:25:39;7.95;;;6.80;;
19971;SDS011;10147;16.402;102.848;2022-11-15T09:28:29;9.00;;;6.80;;
19971;SDS011;10147;16.402;102.848;2022-11-15T09:31:21;8.65;;;6.25;;
19971;SDS011;10147;16.402;102.848;2022-11-15T09:34:12;6.63;;;6.03;;
19971;SDS011;10147;16.402;102.848;2022-11-15T09:37:02;9.02;;;6.40;;
19971;SDS011;10147;16.402;102.848;2022-11-15T09:39:53;14.48;;;12.05;;
19971;SDS011;10147;16.402;102.848;2022-11-15T09:42:52;16.15;;;12.63;;
19971;SDS011;10147;16.402;102.848;2022-11-15T09:49:17;12.00;;;7.95;;
19971;SDS011;10147;16.402;102.848;2022-11-15T09:52:01;9.45;;;7.10;;
19971;SDS011;10147;16.402;102.848;2022-11-15T09:54:39;9.05;;;8.05;;
19971;SDS011;10147;16.402;102.848;2022-11-15T10:00:35;17.80;;;9.13;;
19971;SDS011;10147;16.402;102.848;2022-11-15T10:03:15;11.63;;;10.05;;
19971;SDS011;10147;16.402;102.848;2022-11-15T10:05:54;20.95;;;15.60;;
19971;SDS011;10147;16.402;102.848;2022-11-15T10:08:46;17.45;;;11.82;;
19971;SDS011;10147;16.402;102.848;2022-11-15T10:11:35;15.57;;;12.30;;
19971;SDS011;10147;16.402;102.848;2022-11-15T10:20:15;18.33;;;12.18;;
19971;SDS011;10147;16.402;102.848;2022-11-15T10:22:53;18.80;;;10.57;;
19971;SDS011;10147;16.402;102.848;2022-11-15T10:25:28;16.70;;;10.10;;
19971;SDS011;10147;16.402;102.848;2022-11-15T10:30:57;11.82;;;8.13;;
19971;SDS011;10147;16.402;102.848;2022-11-15T10:33:32;17.70;;;9.68;;
19971;SDS011;10147;16.402;102.848;2022-11-15T10:38:55;14.07;;;8.73;;
19971;SDS011;10147;16.402;102.848;2022-11-15T10:41:31;12.15;;;8.00;;
19971;SDS011;10147;16.402;102.848;2022-11-15T10:47:04;23.50;;;9.07;;
19971;SDS011;10147;16.402;102.848;2022-11-15T10:49:59;15.60;;;8.75;;
19971;SDS011;10147;16.402;102.848;2022-11-15T10:52:34;17.17;;;9.45;;
19971;SDS011;10147;16.402;102.848;2022-11-15T10:55:20;47.80;;;26.42;;
19971;SDS011;10147;16.402;102.848;2022-11-15T10:57:55;83.40;;;46.40;;
19971;SDS011;10147;16.402;102.848;2022-11-15T11:00:37;78.43;;;48.03;;
19971;SDS011;10147;16.402;102.848;2022-11-15T11:06:05;83.47;;;49.30;;
19971;SDS011;10147;16.402;102.848;2022-11-15T11:08:38;116.75;;;69.50;;
19971;SDS011;10147;16.402;102.848;2022-11-15T11:11:09;100.18;;;56.50;;
19971;SDS011;10147;16.402;102.848;2022-11-15T11:13:40;91.38;;;52.78;;
19971;SDS011;10147;16.402;102.848;2022-11-15T11:16:19;83.57;;;48.60;;
19971;SDS011;10147;16.402;102.848;2022-11-15T11:31:24;92.85;;;48.17;;
19971;SDS011;10147;16.402;102.848;2022-11-15T11:34:19;84.93;;;50.10;;
19971;SDS011;10147;16.402;102.848;2022-11-15T11:40:20;78.55;;;42.95;;
19971;SDS011;10147;16.402;102.848;2022-11-15T11:49:17;75.13;;;44.33;;
19971;SDS011;10147;16.402;102.848;2022-11-15T11:52:11;73.82;;;42.78;;
19971;SDS011;10147;16.402;102.848;2022-11-15T11:54:57;81.75;;;42.08;;
19971;SDS011;10147;16.402;102.848;2022-11-15T11:58:11;79.07;;;47.38;;
19971;SDS011;10147;16.402;102.848;2022-11-15T12:01:01;61.05;;;32.40;;
19971;SDS011;10147;16.402;102.848;2022-11-15T12:03:57;49.33;;;29.35;;
19971;SDS011;10147;16.402;102.848;2022-11-15T12:06:58;44.22;;;27.60;;
19971;SDS011;10147;16.402;102.848;2022-11-15T12:10:01;34.13;;;19.60;;
19971;SDS011;10147;16.402;102.848;2022-11-15T12:12:55;32.70;;;18.83;;
19971;SDS011;10147;16.402;102.848;2022-11-15T12:15:51;28.27;;;16.25;;
19971;SDS011;10147;16.402;102.848;2022-11-15T12:18:26;27.88;;;19.63;;
19971;SDS011;10147;16.402;102.848;2022-11-15T12:21:13;28.98;;;19.55;;
19971;SDS011;10147;16.402;102.848;2022-11-15T12:23:58;27.23;;;19.10;;
19971;SDS011;10147;16.402;102.848;2022-11-15T12:27:13;30.02;;;20.52;;
19971;SDS011;10147;16.402;102.848;2022-11-15T12:29:54;30.73;;;20.00;;
19971;SDS011;10147;16.402;102.848;2022-11-15T12:35:38;35.63;;;19.02;;
19971;SDS011;10147;16.402;102.848;2022-11-15T12:38:11;53.85;;;30.38;;
19971;SDS011;10147;16.402;102.848;2022-11-15T12:43:55;38.70;;;22.83;;
19971;SDS011;10147;16.402;102.848;2022-11-15T12:49:42;31.27;;;18.80;;
19971;SDS011;10147;16.402;102.848;2022-11-15T12:52:13;26.42;;;16.58;;
19971;SDS011;10147;16.402;102.848;2022-11-15T12:54:54;26.35;;;14.35;;
19971;SDS011;10147;16.402;102.848;2022-11-15T12:57:28;25.77;;;14.55;;
19971;SDS011;10147;16.402;102.848;2022-11-15T13:00:05;27.50;;;15.88;;
19971;SDS011;10147;16.402;102.848;2022-11-15T13:05:52;28.10;;;19.60;;
19971;SDS011;10147;16.402;102.848;2022-11-15T13:08:37;27.77;;;19.08;;
19971;SDS011;10147;16.402;102.848;2022-11-15T13:17:24;23.13;;;15.77;;
19971;SDS011;10147;16.402;102.848;2022-11-15T13:20:02;23.60;;;14.63;;
19971;SDS011;10147;16.402;102.848;2022-11-15T13:22:59;23.13;;;14.15;;
19971;SDS011;10147;16.402;102.848;2022-11-15T13:28:50;20.08;;;13.77;;
19971;SDS011;10147;16.402;102.848;2022-11-15T13:31:25;19.67;;;13.70;;
19971;SDS011;10147;16.402;102.848;2022-11-15T13:34:00;18.10;;;13.02;;
19971;SDS011;10147;16.402;102.848;2022-11-15T13:36:53;17.65;;;11.77;;
19971;SDS011;10147;16.402;102.848;2022-11-15T13:39:32;19.60;;;12.82;;
19971;SDS011;10147;16.402;102.848;2022-11-15T13:42:13;22.50;;;12.57;;
19971;SDS011;10147;16.402;102.848;2022-11-15T13:44:57;19.52;;;11.27;;
19971;SDS011;10147;16.402;102.848;2022-11-15T13:47:29;16.92;;;10.48;;
19971;SDS011;10147;16.402;102.848;2022-11-15T13:50:01;27.40;;;15.60;;
19971;SDS011;10147;16.402;102.848;2022-11-15T13:52:39;61.28;;;24.67;;
19971;SDS011;10147;16.402;102.848;2022-11-15T13:55:13;57.08;;;25.38;;
19971;SDS011;10147;16.402;102.848;2022-11-15T13:57:50;51.78;;;26.60;;
19971;SDS011;10147;16.402;102.848;2022-11-15T14:00:43;44.35;;;24.23;;
19971;SDS011;10147;16.402;102.848;2022-11-15T14:03:19;35.65;;;21.23;;
19971;SDS011;10147;16.402;102.848;2022-11-15T14:11:55;36.30;;;20.38;;
19971;SDS011;10147;16.402;102.848;2022-11-15T14:14:27;28.88;;;19.73;;
19971;SDS011;10147;16.402;102.848;2022-11-15T14:16:59;28.67;;;18.02;;
19971;SDS011;10147;16.402;102.848;2022-11-15T14:19:34;24.15;;;17.00;;
19971;SDS011;10147;16.402;102.848;2022-11-15T14:22:25;19.10;;;14.25;;
19971;SDS011;10147;16.402;102.848;2022-11-15T14:30:44;21.33;;;12.93;;
19971;SDS011;10147;16.402;102.848;2022-11-15T14:33:27;16.85;;;13.18;;
19971;SDS011;10147;16.402;102.848;2022-11-15T14:36:10;21.85;;;13.27;;
19971;SDS011;10147;16.402;102.848;2022-11-15T14:38:48;21.55;;;13.38;;
19971;SDS011;10147;16.402;102.848;2022-11-15T14:41:23;20.33;;;12.18;;
19971;SDS011;10147;16.402;102.848;2022-11-15T14:43:56;18.13;;;12.57;;
19971;SDS011;10147;16.402;102.848;2022-11-15T14:46:26;16.50;;;12.18;;
19971;SDS011;10147;16.402;102.848;2022-11-15T14:48:57;22.45;;;12.15;;
19971;SDS011;10147;16.402;102.848;2022-11-15T14:51:27;19.60;;;11.38;;
19971;SDS011;10147;16.402;102.848;2022-11-15T14:53:57;18.08;;;12.23;;
19971;SDS011;10147;16.402;102.848;2022-11-15T14:56:28;15.32;;;11.18;;
19971;SDS011;10147;16.402;102.848;2022-11-15T14:58:59;12.60;;;9.95;;
19971;SDS011;10147;16.402;102.848;2022-11-15T15:01:29;13.88;;;9.57;;
19971;SDS011;10147;16.402;102.848;2022-11-15T15:04:01;15.57;;;9.93;;
19971;SDS011;10147;16.402;102.848;2022-11-15T15:06:31;13.32;;;10.55;;
19971;SDS011;10147;16.402;102.848;2022-11-15T15:09:03;11.23;;;9.98;;
19971;SDS011;10147;16.402;102.848;2022-11-15T15:11:34;10.23;;;8.30;;
19971;SDS011;10147;16.402;102.848;2022-11-15T15:14:04;8.95;;;7.00;;
19971;SDS011;10147;16.402;102.848;2022-11-15T15:16:35;10.50;;;7.10;;
19971;SDS011;10147;16.402;102.848;2022-11-15T15:19:06;12.85;;;9.10;;
19971;SDS011;10147;16.402;102.848;2022-11-15T15:21:37;10.70;;;9.70;;
19971;SDS011;10147;16.402;102.848;2022-11-15T15:24:12;9.40;;;8.00;;
19971;SDS011;10147;16.402;102.848;2022-11-15T15:26:43;8.10;;;5.68;;
19971;SDS011;10147;16.402;102.848;2022-11-15T15:29:14;9.75;;;6.15;;
19971;SDS011;10147;16.402;102.848;2022-11-15T15:31:44;7.65;;;5.60;;
19971;SDS011;10147;16.402;102.848;2022-11-15T15:34:15;12.63;;;5.75;;
19971;SDS011;10147;16.402;102.848;2022-11-15T15:36:46;12.02;;;10.93;;
19971;SDS011;10147;16.402;102.848;2022-11-15T15:39:16;10.13;;;6.63;;
19971;SDS011;10147;16.402;102.848;2022-11-15T15:41:47;7.78;;;6.13;;
19971;SDS011;10147;16.402;102.848;2022-11-15T15:44:23;7.38;;;6.22;;
19971;SDS011;10147;16.402;102.848;2022-11-15T15:46:54;7.53;;;6.60;;
19971;SDS011;10147;16.402;102.848;2022-11-15T15:49:26;10.65;;;6.35;;
19971;SDS011;10147;16.402;102.848;2022-11-15T15:51:57;10.80;;;7.38;;
19971;SDS011;10147;16.402;102.848;2022-11-15T15:54:27;10.60;;;7.03;;
19971;SDS011;10147;16.402;102.848;2022-11-15T15:56:57;15.15;;;8.20;;
19971;SDS011;10147;16.402;102.848;2022-11-15T15:59:28;11.48;;;7.50;;
19971;SDS011;10147;16.402;102.848;2022-11-15T16:01:58;10.73;;;7.82;;
19971;SDS011;10147;16.402;102.848;2022-11-15T16:04:29;10.80;;;7.70;;
19971;SDS011;10147;16.402;102.848;2022-11-15T16:07:00;10.02;;;7.50;;
19971;SDS011;10147;16.402;102.848;2022-11-15T16:09:32;11.98;;;7.95;;
19971;SDS011;10147;16.402;102.848;2022-11-15T16:12:22;44.53;;;37.35;;
19971;SDS011;10147;16.402;102.848;2022-11-15T16:14:53;24.92;;;19.73;;
19971;SDS011;10147;16.402;102.848;2022-11-15T16:17:25;25.73;;;21.27;;
19971;SDS011;10147;16.402;102.848;2022-11-15T16:20:00;83.00;;;69.45;;
19971;SDS011;10147;16.402;102.848;2022-11-15T16:22:31;81.72;;;71.72;;
19971;SDS011;10147;16.402;102.848;2022-11-15T16:25:02;50.08;;;38.17;;
19971;SDS011;10147;16.402;102.848;2022-11-15T16:27:32;54.88;;;45.10;;
19971;SDS011;10147;16.402;102.848;2022-11-15T16:30:09;23.85;;;18.92;;
19971;SDS011;10147;16.402;102.848;2022-11-15T16:32:44;68.22;;;61.08;;
19971;SDS011;10147;16.402;102.848;2022-11-15T16:35:16;30.17;;;24.45;;
19971;SDS011;10147;16.402;102.848;2022-11-15T16:37:48;31.58;;;22.95;;
19971;SDS011;10147;16.402;102.848;2022-11-15T16:40:24;14.43;;;8.70;;
19971;SDS011;10147;16.402;102.848;2022-11-15T16:42:59;13.93;;;9.85;;
19971;SDS011;10147;16.402;102.848;2022-11-15T16:45:32;14.55;;;7.70;;
19971;SDS011;10147;16.402;102.848;2022-11-15T16:48:03;26.45;;;9.98;;
19971;SDS011;10147;16.402;102.848;2022-11-15T16:50:34;42.53;;;16.63;;
19971;SDS011;10147;16.402;102.848;2022-11-15T16:53:10;103.90;;;31.98;;
19971;SDS011;10147;16.402;102.848;2022-11-15T16:55:41;47.80;;;18.90;;
19971;SDS011;10147;16.402;102.848;2022-11-15T16:58:11;50.85;;;19.35;;
19971;SDS011;10147;16.402;102.848;2022-11-15T17:00:42;47.05;;;17.23;;
19971;SDS011;10147;16.402;102.848;2022-11-15T17:03:12;41.55;;;15.88;;
19971;SDS011;10147;16.402;102.848;2022-11-15T17:05:43;32.83;;;13.75;;
19971;SDS011;10147;16.402;102.848;2022-11-15T17:08:13;29.52;;;12.82;;
19971;SDS011;10147;16.402;102.848;2022-11-15T17:10:45;25.17;;;12.38;;
19971;SDS011;10147;16.402;102.848;2022-11-15T17:13:16;15.60;;;10.90;;
19971;SDS011;10147;16.402;102.848;2022-11-15T17:15:47;18.60;;;12.55;;
19971;SDS011;10147;16.402;102.848;2022-11-15T17:18:17;17.13;;;10.55;;
19971;SDS011;10147;16.402;102.848;2022-11-15T17:20:49;14.23;;;11.02;;
19971;SDS011;10147;16.402;102.848;2022-11-15T17:23:20;15.93;;;10.63;;
19971;SDS011;10147;16.402;102.848;2022-11-15T17:25:57;14.52;;;11.25;;
19971;SDS011;10147;16.402;102.848;2022-11-15T17:28:48;15.98;;;10.27;;
19971;SDS011;10147;16.402;102.848;2022-11-15T17:31:25;14.60;;;10.68;;
19971;SDS011;10147;16.402;102.848;2022-11-15T17:33:56;15.43;;;12.30;;
19971;SDS011;10147;16.402;102.848;2022-11-15T17:36:26;14.88;;;11.18;;
19971;SDS011;10147;16.402;102.848;2022-11-15T17:38:57;12.10;;;9.63;;
19971;SDS011;10147;16.402;102.848;2022-11-15T17:41:28;14.50;;;9.27;;
19971;SDS011;10147;16.402;102.848;2022-11-15T17:43:59;9.20;;;8.20;;
19971;SDS011;10147;16.402;102.848;2022-11-15T17:46:31;10.90;;;8.57;;